Time;durP1;ratioP1;P1;durP2;ratioP2;P2;SDS_P1;SDS_P2;PMS_P1;PMS_P2;Temp;Humidity;BMP_temperature;BMP_pressure;BME280_temperature;BME280_humidity;BME280_pressure;Samples;Min_cycle;Max_cycle;Signal;HPM_P1;HPM_P2
2023/10/25 00:00:09;;;;;;;12.50;2.40;;;11.30;99.90;;;;;;7287339;19;20194;-82
2023/10/25 00:02:36;;;;;;;8.33;2.10;;;11.40;99.90;;;;;;7289231;19;20189;-81
2023/10/25 00:05:02;;;;;;;8.30;2.20;;;11.50;99.90;;;;;;7286096;19;20698;-81
2023/10/25 00:07:28;;;;;;;9.40;2.10;;;11.50;99.90;;;;;;7289682;19;20194;-81
2023/10/25 00:09:53;;;;;;;12.20;2.53;;;11.70;99.90;;;;;;7303160;19;20655;-81
2023/10/25 00:12:21;;;;;;;8.97;2.40;;;11.70;99.90;;;;;;7300785;19;20188;-81
2023/10/25 00:14:47;;;;;;;13.87;2.27;;;11.60;99.90;;;;;;7289092;19;20306;-81
2023/10/25 00:17:12;;;;;;;10.17;2.40;;;11.70;99.90;;;;;;7287611;19;21145;-81
2023/10/25 00:19:38;;;;;;;11.33;2.30;;;11.70;99.90;;;;;;7288169;19;20201;-81
2023/10/25 00:22:04;;;;;;;8.53;2.10;;;11.70;99.90;;;;;;7287305;19;20184;-80
2023/10/25 00:24:30;;;;;;;10.83;2.23;;;11.70;99.90;;;;;;7287601;19;20206;-81
2023/10/25 00:26:56;;;;;;;14.90;2.53;;;11.70;99.90;;;;;;7285463;19;20529;-81
2023/10/25 00:29:22;;;;;;;9.03;2.10;;;11.70;99.90;;;;;;7311525;19;20207;-81
2023/10/25 00:31:47;;;;;;;11.47;2.87;;;11.60;99.90;;;;;;7285268;19;20657;-81
2023/10/25 00:34:13;;;;;;;11.73;2.40;;;11.60;99.90;;;;;;7288023;19;20205;-81
2023/10/25 00:36:39;;;;;;;12.63;2.90;;;11.70;99.90;;;;;;7288516;19;20181;-81
2023/10/25 00:39:05;;;;;;;8.43;2.17;;;11.70;99.90;;;;;;7288399;19;20193;-81
2023/10/25 00:41:31;;;;;;;7.67;2.30;;;11.70;99.90;;;;;;7293994;19;20201;-82
2023/10/25 00:43:56;;;;;;;14.73;2.63;;;11.80;99.90;;;;;;7293019;19;20201;-82
2023/10/25 00:46:26;;;;;;;12.37;2.17;;;11.60;99.90;;;;;;7299022;19;20558;-82
2023/10/25 00:48:56;;;;;;;10.83;2.30;;;11.60;99.90;;;;;;7309584;19;20646;-82
2023/10/25 00:51:23;;;;;;;10.60;2.50;;;11.50;99.90;;;;;;7288411;19;20207;-82
2023/10/25 00:53:55;;;;;;;8.73;2.37;;;11.50;99.90;;;;;;7287481;19;20205;-81
2023/10/25 00:56:25;;;;;;;6.40;2.03;;;11.70;99.90;;;;;;7289096;19;20189;-82
2023/10/25 00:58:56;;;;;;;7.57;2.10;;;11.70;99.90;;;;;;7286321;19;20188;-82
2023/10/25 01:01:23;;;;;;;8.53;2.20;;;11.70;99.90;;;;;;7288922;19;20189;-81
2023/10/25 01:03:49;;;;;;;8.83;2.13;;;11.70;99.90;;;;;;7288262;19;20527;-82
2023/10/25 01:06:16;;;;;;;7.53;2.17;;;11.70;99.90;;;;;;7286473;19;20311;-82
2023/10/25 01:08:43;;;;;;;6.70;2.27;;;11.70;99.90;;;;;;7285489;19;20652;-82
2023/10/25 01:11:09;;;;;;;12.17;2.27;;;11.80;99.90;;;;;;7284707;19;21121;-82
2023/10/25 01:13:35;;;;;;;7.27;2.20;;;11.80;99.90;;;;;;7284434;19;20214;-82
2023/10/25 01:16:01;;;;;;;7.60;2.20;;;11.80;99.90;;;;;;7285776;19;20185;-82
2023/10/25 01:18:27;;;;;;;8.73;2.27;;;11.80;99.90;;;;;;7286502;19;20192;-81
2023/10/25 01:20:53;;;;;;;6.90;1.90;;;11.90;99.90;;;;;;7306049;19;20759;-81
2023/10/25 01:23:19;;;;;;;9.07;2.03;;;11.90;99.90;;;;;;7295727;19;20546;-82
2023/10/25 01:25:45;;;;;;;8.43;2.37;;;11.90;99.90;;;;;;7284236;19;20296;-82
2023/10/25 01:28:11;;;;;;;9.77;2.77;;;11.80;99.90;;;;;;7283943;19;20192;-82
2023/10/25 01:30:38;;;;;;;8.50;2.57;;;11.90;99.90;;;;;;7286284;19;20189;-82
2023/10/25 01:33:04;;;;;;;11.43;2.87;;;11.80;99.90;;;;;;7287222;19;20201;-81
2023/10/25 01:35:30;;;;;;;9.37;2.27;;;11.80;99.90;;;;;;7285228;19;20677;-81
2023/10/25 01:37:56;;;;;;;13.43;2.50;;;11.80;99.90;;;;;;7286137;19;20596;-82
2023/10/25 01:40:21;;;;;;;9.67;2.80;;;11.80;99.90;;;;;;7303548;19;20196;-82
2023/10/25 01:42:51;;;;;;;9.33;2.90;;;11.80;99.90;;;;;;7284677;19;20180;-82
2023/10/25 01:45:18;;;;;;;9.03;2.77;;;11.80;99.90;;;;;;7285658;19;20648;-82
2023/10/25 01:47:43;;;;;;;13.77;3.10;;;11.80;99.90;;;;;;7284021;19;20631;-82
2023/10/25 01:50:09;;;;;;;13.37;3.33;;;11.70;99.90;;;;;;7282992;19;20180;-81
2023/10/25 01:52:35;;;;;;;11.90;3.00;;;11.80;99.90;;;;;;7284821;19;20225;-82
2023/10/25 01:55:01;;;;;;;13.07;3.27;;;11.80;99.90;;;;;;7284246;19;20209;-81
2023/10/25 01:57:27;;;;;;;13.63;3.27;;;11.80;99.90;;;;;;7283723;19;20222;-81
2023/10/25 01:59:53;;;;;;;7.77;2.70;;;11.80;99.90;;;;;;7305237;19;20189;-81
2023/10/25 02:02:19;;;;;;;14.63;3.77;;;11.80;99.90;;;;;;7294847;19;20216;-81
2023/10/25 02:04:45;;;;;;;13.97;3.23;;;11.70;99.90;;;;;;7280646;19;20311;-81
2023/10/25 02:07:11;;;;;;;15.27;3.43;;;11.70;99.90;;;;;;7283583;19;20695;-81
2023/10/25 02:09:37;;;;;;;9.17;2.87;;;11.80;99.90;;;;;;7281578;19;20198;-81
2023/10/25 02:12:03;;;;;;;13.27;3.40;;;11.80;99.90;;;;;;7283529;19;20188;-81
2023/10/25 02:14:29;;;;;;;11.80;3.50;;;11.70;99.90;;;;;;7282868;19;20185;-81
2023/10/25 02:16:54;;;;;;;9.00;3.10;;;11.80;99.90;;;;;;7291961;19;20268;-81
2023/10/25 02:19:20;;;;;;;11.70;3.20;;;11.80;99.90;;;;;;7304027;19;20212;-81
2023/10/25 02:21:46;;;;;;;10.30;3.07;;;11.70;99.90;;;;;;7284840;19;20264;-81
2023/10/25 02:24:15;;;;;;;12.53;2.80;;;11.70;99.90;;;;;;7282984;19;20701;-81
2023/10/25 02:26:41;;;;;;;11.17;3.40;;;11.60;99.90;;;;;;7285090;19;20198;-81
2023/10/25 02:29:07;;;;;;;14.37;3.03;;;11.50;99.90;;;;;;7286304;19;20188;-81
2023/10/25 02:31:34;;;;;;;8.00;2.57;;;11.60;99.90;;;;;;7283159;19;20189;-81
2023/10/25 02:34:00;;;;;;;10.97;3.30;;;11.50;99.90;;;;;;7284432;19;20189;-81
2023/10/25 02:36:26;;;;;;;10.77;4.00;;;11.50;99.90;;;;;;7287757;19;20213;-81
2023/10/25 02:38:52;;;;;;;9.73;3.10;;;11.50;99.90;;;;;;7309431;19;20639;-82
2023/10/25 02:41:18;;;;;;;10.07;2.80;;;11.50;99.90;;;;;;7287093;19;20295;-81
2023/10/25 02:43:44;;;;;;;6.77;2.60;;;11.50;99.90;;;;;;7286036;19;20194;-82
2023/10/25 02:46:12;;;;;;;10.30;2.60;;;11.50;99.90;;;;;;7289018;19;20578;-82
2023/10/25 02:48:38;;;;;;;9.23;2.73;;;11.60;99.90;;;;;;7283609;19;20212;-82
2023/10/25 02:51:05;;;;;;;8.30;2.67;;;11.70;99.90;;;;;;7280367;19;20195;-82
2023/10/25 02:53:31;;;;;;;11.70;2.37;;;11.70;99.90;;;;;;7281601;19;20863;-82
2023/10/25 02:56:05;;;;;;;7.70;2.40;;;11.60;99.90;;;;;;7283716;19;20252;-83
2023/10/25 02:58:31;;;;;;;11.77;2.50;;;11.50;99.90;;;;;;7282061;19;20185;-82
2023/10/25 03:00:57;;;;;;;10.47;2.90;;;11.60;99.90;;;;;;7284151;19;20227;-82
2023/10/25 03:03:24;;;;;;;13.90;2.80;;;11.70;99.90;;;;;;7308617;19;20181;-82
2023/10/25 03:05:49;;;;;;;10.17;2.70;;;11.70;99.90;;;;;;7286741;19;20254;-82
2023/10/25 03:08:15;;;;;;;8.13;2.40;;;11.60;99.90;;;;;;7284668;19;20183;-82
2023/10/25 03:10:41;;;;;;;9.27;2.40;;;11.50;99.90;;;;;;7283799;19;20714;-82
2023/10/25 03:13:07;;;;;;;9.93;2.30;;;11.50;99.90;;;;;;7283533;19;20191;-83
2023/10/25 03:15:33;;;;;;;8.40;2.40;;;11.50;99.90;;;;;;7283580;19;20212;-82
2023/10/25 03:17:59;;;;;;;8.40;2.57;;;11.40;99.90;;;;;;7288916;19;20192;-81
2023/10/25 03:20:24;;;;;;;8.60;2.50;;;11.50;99.90;;;;;;7297167;19;20530;-80
2023/10/25 03:22:50;;;;;;;9.10;2.40;;;11.40;99.90;;;;;;7313327;19;20194;-81
2023/10/25 03:25:16;;;;;;;9.17;2.83;;;11.50;99.90;;;;;;7286954;19;20222;-81
2023/10/25 03:27:42;;;;;;;8.37;2.03;;;11.50;99.90;;;;;;7291988;19;20216;-82
2023/10/25 03:30:08;;;;;;;9.83;2.60;;;11.40;99.90;;;;;;7289749;19;20562;-81
2023/10/25 03:32:34;;;;;;;7.87;2.27;;;11.50;99.90;;;;;;7290451;19;20220;-81
2023/10/25 03:35:00;;;;;;;8.97;2.37;;;11.50;99.90;;;;;;7289316;19;20187;-81
2023/10/25 03:37:26;;;;;;;10.07;2.03;;;11.50;99.90;;;;;;7289685;19;20184;-81
2023/10/25 03:39:52;;;;;;;7.37;2.07;;;11.60;99.90;;;;;;7312259;19;20187;-81
2023/10/25 03:42:18;;;;;;;10.57;2.50;;;11.60;99.90;;;;;;7289957;19;20684;-81
2023/10/25 03:44:43;;;;;;;8.60;2.30;;;11.50;99.90;;;;;;7288312;19;20243;-81
2023/10/25 03:47:09;;;;;;;6.67;2.10;;;11.60;99.90;;;;;;7289193;19;20198;-81
2023/10/25 03:49:35;;;;;;;9.47;2.10;;;11.60;99.90;;;;;;7289042;19;20216;-81
2023/10/25 03:52:01;;;;;;;7.40;2.07;;;11.60;99.90;;;;;;7292227;19;20185;-81
2023/10/25 03:54:27;;;;;;;8.77;2.03;;;11.50;99.90;;;;;;7286009;19;20191;-81
2023/10/25 03:56:53;;;;;;;5.73;2.00;;;11.50;99.90;;;;;;7311142;19;20533;-81
2023/10/25 03:59:19;;;;;;;7.00;1.93;;;11.50;99.90;;;;;;7288498;19;20237;-81
2023/10/25 04:01:45;;;;;;;6.53;1.80;;;11.50;99.90;;;;;;7289187;19;20170;-81
2023/10/25 04:04:11;;;;;;;5.50;1.70;;;11.60;99.90;;;;;;7288366;19;20184;-82
2023/10/25 04:06:38;;;;;;;5.57;1.80;;;11.60;99.90;;;;;;7288821;19;20211;-81
2023/10/25 04:09:04;;;;;;;5.40;1.50;;;11.60;99.90;;;;;;7287225;19;20204;-81
2023/10/25 04:11:30;;;;;;;5.83;1.70;;;11.70;99.90;;;;;;7289130;19;20284;-81
2023/10/25 04:13:56;;;;;;;8.40;1.77;;;11.60;99.90;;;;;;7286252;19;20723;-81
2023/10/25 04:16:22;;;;;;;5.60;1.50;;;11.50;99.90;;;;;;7312906;19;20205;-82
2023/10/25 04:18:48;;;;;;;6.23;1.50;;;11.60;99.90;;;;;;7287070;19;20282;-81
2023/10/25 04:21:14;;;;;;;6.03;1.60;;;11.60;99.90;;;;;;7286416;19;20678;-81
2023/10/25 04:23:40;;;;;;;6.73;1.60;;;11.70;99.90;;;;;;7287422;19;20189;-81
2023/10/25 04:26:07;;;;;;;7.80;1.70;;;11.70;99.90;;;;;;7287393;19;20663;-82
2023/10/25 04:28:34;;;;;;;6.37;1.60;;;11.80;99.90;;;;;;7287546;19;20281;-81
2023/10/25 04:31:00;;;;;;;11.13;1.80;;;11.80;99.90;;;;;;7286305;19;20685;-82
2023/10/25 04:33:27;;;;;;;5.70;1.70;;;11.70;99.90;;;;;;7288000;19;20192;-82
2023/10/25 04:35:53;;;;;;;8.43;1.50;;;11.80;99.90;;;;;;7308873;19;20189;-81
2023/10/25 04:38:19;;;;;;;4.70;1.43;;;11.80;99.90;;;;;;7287251;19;20184;-81
2023/10/25 04:40:45;;;;;;;9.50;1.70;;;11.80;99.90;;;;;;7288992;19;20201;-81
2023/10/25 04:43:11;;;;;;;8.30;1.97;;;11.70;99.90;;;;;;7286552;19;20241;-81
2023/10/25 04:45:37;;;;;;;8.37;1.50;;;11.70;99.90;;;;;;7287261;19;20197;-81
2023/10/25 04:48:03;;;;;;;9.57;1.80;;;11.70;99.90;;;;;;7289615;19;20196;-82
2023/10/25 04:50:35;;;;;;;10.87;2.00;;;11.80;99.90;;;;;;7287484;19;20189;-82
2023/10/25 04:53:02;;;;;;;6.30;1.50;;;11.70;99.90;;;;;;7287800;19;20209;-84
2023/10/25 04:55:29;;;;;;;11.93;1.80;;;11.60;99.90;;;;;;7287144;19;20185;-82
2023/10/25 04:57:58;;;;;;;8.20;1.70;;;11.50;99.90;;;;;;7288243;19;20195;-82
2023/10/25 05:00:24;;;;;;;7.63;2.10;;;11.40;99.90;;;;;;7310607;19;20221;-81
2023/10/25 05:02:50;;;;;;;7.67;1.97;;;11.50;99.90;;;;;;7305194;19;20221;-82
2023/10/25 05:05:15;;;;;;;8.83;1.93;;;11.50;99.90;;;;;;7289484;19;20635;-82
2023/10/25 05:07:42;;;;;;;8.27;2.10;;;11.40;99.90;;;;;;7290642;19;20188;-82
2023/10/25 05:10:09;;;;;;;7.87;2.00;;;11.40;99.90;;;;;;7291389;19;20200;-81
2023/10/25 05:12:44;;;;;;;13.33;2.30;;;11.40;99.90;;;;;;7304774;19;20215;-79
2023/10/25 05:15:16;;;;;;;12.07;2.50;;;11.40;99.90;;;;;;7289566;19;20191;-80
2023/10/25 05:17:44;;;;;;;15.23;2.87;;;11.40;99.90;;;;;;7287815;19;20736;-80
2023/10/25 05:20:11;;;;;;;8.17;2.30;;;11.40;99.90;;;;;;7287470;19;20191;-82
2023/10/25 05:22:39;;;;;;;10.63;2.80;;;11.40;99.90;;;;;;7288167;19;20266;-80
2023/10/25 05:25:07;;;;;;;7.30;2.40;;;11.50;99.90;;;;;;7284139;19;20265;-84
2023/10/25 05:27:34;;;;;;;9.33;2.43;;;11.40;99.90;;;;;;7286933;19;21105;-83
2023/10/25 05:30:03;;;;;;;9.80;2.80;;;11.50;99.90;;;;;;7285279;19;20187;-83
2023/10/25 05:32:34;;;;;;;8.53;2.70;;;11.60;99.90;;;;;;7286038;19;20199;-82
2023/10/25 05:35:01;;;;;;;8.00;2.70;;;11.50;99.90;;;;;;7285268;19;20193;-83
2023/10/25 05:37:29;;;;;;;9.17;2.50;;;11.50;99.90;;;;;;7287000;19;20555;-83
2023/10/25 05:39:55;;;;;;;7.53;2.47;;;11.40;99.90;;;;;;7300843;19;20215;-82
2023/10/25 05:42:23;;;;;;;10.60;3.23;;;11.50;99.90;;;;;;7308733;19;20237;-83
2023/10/25 05:44:54;;;;;;;10.67;2.93;;;11.50;99.90;;;;;;7284995;19;20187;-83
2023/10/25 05:47:25;;;;;;;9.50;2.80;;;11.50;99.90;;;;;;7289398;19;20199;-84
2023/10/25 05:49:52;;;;;;;11.93;2.90;;;11.60;99.90;;;;;;7287144;19;20243;-83
2023/10/25 05:52:18;;;;;;;8.97;2.63;;;11.60;99.90;;;;;;7286597;19;20582;-83
2023/10/25 05:54:44;;;;;;;9.30;2.70;;;11.70;99.90;;;;;;7284125;19;20222;-83
2023/10/25 05:57:12;;;;;;;7.97;2.80;;;11.70;99.90;;;;;;7284154;19;20189;-84
2023/10/25 05:59:38;;;;;;;8.03;2.70;;;11.70;99.90;;;;;;7283837;19;20188;-83
2023/10/25 06:02:10;;;;;;;13.40;3.17;;;11.80;99.90;;;;;;7285917;19;20282;-83
2023/10/25 06:04:40;;;;;;;12.63;3.40;;;11.80;99.90;;;;;;7285395;19;20667;-81
2023/10/25 06:07:07;;;;;;;10.53;3.10;;;11.90;99.90;;;;;;7284798;19;20524;-80
2023/10/25 06:09:34;;;;;;;13.53;3.40;;;11.90;99.90;;;;;;7283086;19;20208;-81
2023/10/25 06:12:00;;;;;;;8.93;2.63;;;11.90;99.90;;;;;;7286542;19;20226;-80
2023/10/25 06:14:27;;;;;;;11.03;3.03;;;11.90;99.90;;;;;;7283411;19;20192;-80
2023/10/25 06:16:53;;;;;;;11.43;3.03;;;11.90;99.90;;;;;;7304937;19;20194;-81
2023/10/25 06:19:19;;;;;;;6.10;2.80;;;11.90;99.90;;;;;;7282455;19;20192;-81
2023/10/25 06:21:44;;;;;;;10.53;3.17;;;11.80;99.90;;;;;;7283376;19;20186;-80
2023/10/25 06:24:10;;;;;;;13.90;2.93;;;11.70;99.90;;;;;;7284003;19;20180;-81
2023/10/25 06:26:36;;;;;;;8.40;3.07;;;11.70;99.90;;;;;;7284888;19;20191;-81
2023/10/25 06:29:02;;;;;;;9.33;3.63;;;11.60;99.90;;;;;;7285007;19;20184;-81
2023/10/25 06:31:28;;;;;;;6.93;3.07;;;11.60;99.90;;;;;;7284337;19;20215;-81
2023/10/25 06:33:54;;;;;;;6.73;2.77;;;11.40;99.90;;;;;;7306019;19;20255;-81
2023/10/25 06:36:20;;;;;;;8.23;3.07;;;11.50;99.90;;;;;;7286177;19;20191;-81
2023/10/25 06:38:46;;;;;;;7.40;2.83;;;11.50;99.90;;;;;;7284239;19;20196;-81
2023/10/25 06:41:16;;;;;;;8.33;2.97;;;11.50;99.90;;;;;;7281513;19;20201;-81
2023/10/25 06:43:43;;;;;;;10.70;2.87;;;11.50;99.90;;;;;;7284778;19;20198;-81
2023/10/25 06:46:10;;;;;;;8.10;2.80;;;11.50;99.90;;;;;;7284814;19;21043;-82
2023/10/25 06:48:37;;;;;;;10.03;3.10;;;11.50;99.90;;;;;;7284233;19;20292;-81
2023/10/25 06:51:05;;;;;;;6.37;3.07;;;11.60;99.90;;;;;;7280620;19;20233;-81
2023/10/25 06:53:31;;;;;;;9.03;2.97;;;11.60;99.90;;;;;;7283847;19;20232;-81
2023/10/25 06:55:57;;;;;;;9.47;2.80;;;11.70;99.90;;;;;;7285036;19;20208;-82
2023/10/25 06:58:24;;;;;;;11.47;3.03;;;11.60;99.90;;;;;;7305157;19;20188;-82
2023/10/25 07:00:50;;;;;;;9.80;2.80;;;11.60;99.90;;;;;;7283036;19;20214;-82
2023/10/25 07:03:20;;;;;;;12.33;3.13;;;11.50;99.90;;;;;;7283739;19;20219;-80
2023/10/25 07:05:48;;;;;;;8.87;2.97;;;11.50;99.90;;;;;;7298476;19;20273;-82
2023/10/25 07:08:15;;;;;;;9.70;3.10;;;11.40;99.90;;;;;;7285153;19;21346;-83
2023/10/25 07:10:41;;;;;;;11.13;3.50;;;11.30;99.90;;;;;;7285331;19;20190;-82
2023/10/25 07:13:07;;;;;;;9.60;3.00;;;11.30;99.90;;;;;;7284541;19;20196;-82
2023/10/25 07:15:35;;;;;;;7.87;2.90;;;11.30;99.90;;;;;;7285817;19;20183;-83
2023/10/25 07:18:01;;;;;;;7.27;2.70;;;11.30;99.90;;;;;;7287724;19;20218;-83
2023/10/25 07:20:26;;;;;;;10.73;2.77;;;11.30;99.90;;;;;;7285902;19;20195;-83
2023/10/25 07:22:52;;;;;;;10.37;2.60;;;11.40;99.90;;;;;;7308206;19;20186;-84
2023/10/25 07:25:18;;;;;;;14.20;3.23;;;11.40;99.90;;;;;;7286466;19;20193;-84
2023/10/25 07:27:44;;;;;;;8.93;3.07;;;11.40;99.90;;;;;;7285814;19;20204;-85
2023/10/25 07:30:10;;;;;;;9.50;2.90;;;11.30;99.90;;;;;;7283046;19;20981;-83
2023/10/25 07:32:35;;;;;;;6.00;2.40;;;11.30;99.90;;;;;;7286554;19;20180;-83
2023/10/25 07:35:02;;;;;;;7.70;2.60;;;11.30;99.90;;;;;;7273764;19;20187;-86
2023/10/25 07:37:28;;;;;;;8.27;2.60;;;11.40;99.90;;;;;;7283264;19;20635;-85
2023/10/25 07:39:54;;;;;;;8.37;2.73;;;11.40;99.90;;;;;;7307860;19;20185;-84
2023/10/25 07:42:20;;;;;;;10.27;2.83;;;11.40;99.90;;;;;;7319577;19;20189;-83
2023/10/25 07:44:46;;;;;;;6.13;2.87;;;11.40;99.90;;;;;;7299522;19;20337;-83
2023/10/25 07:47:11;;;;;;;6.77;2.63;;;11.30;99.90;;;;;;7297094;19;20644;-84
2023/10/25 07:49:37;;;;;;;6.87;2.97;;;11.30;99.90;;;;;;7295359;19;20207;-84
2023/10/25 07:52:04;;;;;;;8.17;2.80;;;11.20;99.90;;;;;;7297065;19;20194;-84
2023/10/25 07:54:30;;;;;;;9.13;3.53;;;11.20;99.90;;;;;;7297922;19;20187;-84
2023/10/25 07:56:55;;;;;;;10.57;3.77;;;11.10;99.90;;;;;;7290177;19;20564;-84
2023/10/25 07:59:21;;;;;;;10.70;3.50;;;11.10;99.90;;;;;;7305283;19;20611;-83
2023/10/25 08:01:48;;;;;;;11.57;4.33;;;11.10;99.90;;;;;;7285981;19;20183;-84
2023/10/25 08:04:14;;;;;;;7.23;3.67;;;11.10;99.90;;;;;;7289327;19;20209;-84
2023/10/25 08:06:40;;;;;;;12.13;4.77;;;11.10;99.90;;;;;;7289934;19;20517;-83
2023/10/25 08:09:06;;;;;;;9.37;4.10;;;11.10;99.90;;;;;;7290426;19;20215;-84
2023/10/25 08:11:35;;;;;;;12.07;4.13;;;11.20;99.90;;;;;;7294281;19;20253;-84
2023/10/25 08:14:02;;;;;;;8.57;3.87;;;11.20;99.90;;;;;;7293028;19;20208;-84
2023/10/25 08:16:28;;;;;;;8.73;4.07;;;11.20;99.90;;;;;;7285654;19;20218;-83
2023/10/25 08:18:54;;;;;;;10.33;4.27;;;11.30;99.90;;;;;;7311823;19;20238;-83
2023/10/25 08:21:24;;;;;;;10.63;4.70;;;11.30;99.90;;;;;;7289889;19;20220;-83
2023/10/25 08:23:55;;;;;;;8.70;3.90;;;11.40;99.90;;;;;;7304802;19;20192;-84
2023/10/25 08:26:21;;;;;;;9.30;4.27;;;11.50;99.90;;;;;;7303194;19;20707;-82
2023/10/25 08:28:47;;;;;;;9.07;4.30;;;11.60;99.90;;;;;;7299746;19;20206;-83
2023/10/25 08:31:14;;;;;;;9.43;4.20;;;11.70;99.90;;;;;;7284092;19;20200;-83
2023/10/25 08:33:40;;;;;;;9.87;4.50;;;11.70;99.90;;;;;;7287333;19;20185;-83
2023/10/25 08:36:06;;;;;;;9.93;4.30;;;11.70;99.90;;;;;;7283984;19;20189;-83
2023/10/25 08:38:33;;;;;;;8.33;4.00;;;11.70;99.90;;;;;;7284987;19;20202;-83
2023/10/25 08:41:06;;;;;;;9.53;4.57;;;11.70;99.90;;;;;;7285712;19;20185;-83
2023/10/25 08:43:33;;;;;;;10.00;3.93;;;11.70;99.90;;;;;;7286342;19;20266;-81
2023/10/25 08:46:03;;;;;;;7.33;3.93;;;11.80;99.90;;;;;;7285636;19;20189;-83
2023/10/25 08:48:30;;;;;;;9.03;4.30;;;11.80;99.90;;;;;;7289545;19;20199;-83
2023/10/25 08:50:56;;;;;;;9.57;3.73;;;11.80;99.90;;;;;;7287826;19;20192;-82
2023/10/25 08:53:24;;;;;;;10.33;4.30;;;11.90;99.90;;;;;;7307708;19;20188;-82
2023/10/25 08:55:54;;;;;;;8.47;4.27;;;12.00;99.90;;;;;;7284233;19;20302;-83
2023/10/25 08:58:20;;;;;;;10.73;4.73;;;11.90;99.90;;;;;;7286469;19;20249;-83
2023/10/25 09:00:49;;;;;;;10.83;4.40;;;11.90;99.90;;;;;;7284365;19;20523;-82
2023/10/25 09:03:33;;;;;;;9.90;5.00;;;11.90;99.90;;;;;;7297297;19;20230;-83
2023/10/25 09:06:00;;;;;;;8.77;4.33;;;12.00;99.90;;;;;;7187362;19;2004343;-82
2023/10/25 09:08:27;;;;;;;9.03;4.20;;;12.00;99.90;;;;;;7284020;19;20181;-82
2023/10/25 09:11:03;;;;;;;10.60;4.77;;;12.10;99.90;;;;;;7307640;19;20188;-83
2023/10/25 09:13:34;;;;;;;11.57;5.20;;;12.10;99.90;;;;;;7184367;19;2004628;-82
2023/10/25 09:16:13;;;;;;;10.27;4.63;;;12.10;99.90;;;;;;7281768;19;20201;-82
2023/10/25 09:18:40;;;;;;;11.47;5.27;;;12.10;99.90;;;;;;7283639;19;20185;-82
2023/10/25 09:21:07;;;;;;;9.43;4.50;;;12.20;99.90;;;;;;7286428;19;20185;-82
2023/10/25 09:23:34;;;;;;;8.80;4.60;;;12.30;99.90;;;;;;7286643;19;20193;-83
2023/10/25 09:26:01;;;;;;;10.70;5.20;;;12.30;99.90;;;;;;7284861;19;20189;-83
2023/10/25 09:28:28;;;;;;;9.63;5.30;;;12.40;99.90;;;;;;7284250;19;20188;-83
2023/10/25 09:30:55;;;;;;;12.27;5.70;;;12.30;99.90;;;;;;7299845;19;20237;-82
2023/10/25 09:33:22;;;;;;;10.20;5.03;;;12.20;99.90;;;;;;7306886;19;20193;-83
2023/10/25 09:35:49;;;;;;;11.27;5.10;;;12.30;99.90;;;;;;7284931;19;20205;-83
2023/10/25 09:38:15;;;;;;;9.60;4.87;;;12.40;99.90;;;;;;7285568;19;20190;-82
2023/10/25 09:40:43;;;;;;;9.87;5.00;;;12.50;99.90;;;;;;7284554;19;20206;-83
2023/10/25 09:43:15;;;;;;;12.03;5.37;;;12.70;99.90;;;;;;7284591;19;20209;-83
2023/10/25 09:45:43;;;;;;;11.27;5.47;;;12.90;99.90;;;;;;7283721;19;20195;-82
2023/10/25 09:48:12;;;;;;;11.97;5.67;;;12.90;99.90;;;;;;7289551;19;20190;-83
2023/10/25 09:50:44;;;;;;;10.07;4.70;;;12.90;99.90;;;;;;7292387;19;20186;-83
2023/10/25 09:53:22;;;;;;;9.87;5.27;;;12.80;99.90;;;;;;7292695;19;20193;-82
2023/10/25 09:55:54;;;;;;;12.77;5.13;;;12.80;99.90;;;;;;7287526;19;20246;-83
2023/10/25 09:58:22;;;;;;;11.10;5.47;;;12.90;99.90;;;;;;7284808;19;20185;-81
2023/10/25 10:00:49;;;;;;;10.93;5.47;;;13.00;99.90;;;;;;7284344;19;20233;-82
2023/10/25 10:03:38;;;;;;;10.40;5.63;;;13.00;99.90;;;;;;7283927;19;20188;-82
2023/10/25 10:06:15;;;;;;;10.17;5.17;;;13.10;99.90;;;;;;7188244;19;2004828;-83
2023/10/25 10:08:52;;;;;;;11.10;5.23;;;13.10;99.90;;;;;;7286752;19;20188;-83
2023/10/25 10:11:25;;;;;;;9.77;5.27;;;13.00;99.90;;;;;;7283725;19;20196;-83
2023/10/25 10:14:29;;;;;;;10.93;5.33;;;13.10;99.90;;;;;;7288227;19;20231;-83
2023/10/25 10:17:02;;;;;;;11.17;5.10;;;13.10;99.90;;;;;;7169649;19;2004776;-83
2023/10/25 10:19:31;;;;;;;9.70;4.63;;;13.10;99.90;;;;;;7284710;19;20206;-84
2023/10/25 10:22:13;;;;;;;10.37;5.37;;;13.20;99.90;;;;;;7283332;19;20180;-83
2023/10/25 10:24:48;;;;;;;11.87;5.20;;;13.20;99.90;;;;;;7284553;19;20539;-83
2023/10/25 10:27:40;;;;;;;10.53;5.30;;;13.30;99.90;;;;;;7284922;19;20565;-83
2023/10/25 10:30:30;;;;;;;9.60;5.47;;;13.40;99.90;;;;;;7180184;19;2004572;-82
2023/10/25 10:32:58;;;;;;;12.13;5.37;;;13.40;99.90;;;;;;7263583;19;20645;-85
2023/10/25 10:35:25;;;;;;;10.80;5.30;;;13.50;99.90;;;;;;7305285;19;20197;-84
2023/10/25 10:37:55;;;;;;;11.03;4.70;;;13.60;99.90;;;;;;7286250;19;20294;-84
2023/10/25 10:40:21;;;;;;;10.63;4.80;;;13.60;99.90;;;;;;7284835;19;20226;-84
2023/10/25 10:42:48;;;;;;;11.60;4.87;;;13.70;99.90;;;;;;7285892;19;20187;-84
2023/10/25 10:45:19;;;;;;;8.10;4.33;;;13.80;99.90;;;;;;7284819;19;21297;-83
2023/10/25 10:47:51;;;;;;;10.63;4.63;;;13.80;99.90;;;;;;7287068;19;20187;-84
2023/10/25 10:50:22;;;;;;;8.10;4.20;;;13.90;99.90;;;;;;7289857;19;20226;-84
2023/10/25 10:52:51;;;;;;;8.63;4.23;;;14.00;99.90;;;;;;7289444;19;20187;-84
2023/10/25 10:55:24;;;;;;;8.20;4.10;;;14.00;99.90;;;;;;7281733;19;20205;-82
2023/10/25 10:57:51;;;;;;;9.20;4.90;;;14.20;99.90;;;;;;7278200;19;20194;-83
2023/10/25 11:00:18;;;;;;;14.00;4.70;;;14.30;99.90;;;;;;7281625;19;20182;-82
2023/10/25 11:02:48;;;;;;;8.33;3.67;;;14.40;99.90;;;;;;7280836;19;20267;-83
2023/10/25 11:05:20;;;;;;;5.80;3.10;;;14.50;99.90;;;;;;7281293;19;20217;-83
2023/10/25 11:07:51;;;;;;;9.87;3.63;;;14.60;99.90;;;;;;7281923;19;20198;-83
2023/10/25 11:10:18;;;;;;;8.20;3.40;;;14.60;99.90;;;;;;7280046;19;20202;-82
2023/10/25 11:12:44;;;;;;;6.97;3.30;;;14.70;99.90;;;;;;7281995;19;21210;-82
2023/10/25 11:15:11;;;;;;;8.33;3.27;;;14.80;99.90;;;;;;7279321;19;20188;-81
2023/10/25 11:17:38;;;;;;;6.63;3.67;;;14.70;99.90;;;;;;7281136;19;20187;-81
2023/10/25 11:20:05;;;;;;;8.50;3.10;;;14.60;99.90;;;;;;7280959;19;20210;-80
2023/10/25 11:22:31;;;;;;;6.33;3.70;;;14.60;99.90;;;;;;7278141;19;20782;-81
2023/10/25 11:24:58;;;;;;;6.43;3.00;;;14.60;99.90;;;;;;7279661;19;20187;-81
2023/10/25 11:27:31;;;;;;;9.73;3.50;;;14.50;99.90;;;;;;7292643;19;20193;-81
2023/10/25 11:29:57;;;;;;;7.90;3.37;;;14.50;99.90;;;;;;7279747;19;20183;-82
2023/10/25 11:32:23;;;;;;;8.40;3.90;;;14.50;99.90;;;;;;7299773;19;20203;-81
2023/10/25 11:34:54;;;;;;;8.10;3.70;;;14.60;99.90;;;;;;7279423;19;20190;-82
2023/10/25 11:37:20;;;;;;;10.43;3.67;;;14.70;99.90;;;;;;7284789;19;20216;-82
2023/10/25 11:39:56;;;;;;;7.53;3.87;;;14.80;99.90;;;;;;7286950;19;20199;-80
2023/10/25 11:42:25;;;;;;;7.33;4.30;;;14.80;99.90;;;;;;7286188;19;20194;-81
2023/10/25 11:44:50;;;;;;;10.27;4.27;;;14.90;99.90;;;;;;7288208;19;20664;-82
2023/10/25 11:47:21;;;;;;;7.97;3.80;;;15.00;99.90;;;;;;7283594;19;20223;-82
2023/10/25 11:49:57;;;;;;;7.70;4.10;;;15.10;99.90;;;;;;7286257;19;20175;-81
2023/10/25 11:52:28;;;;;;;7.83;3.60;;;15.00;99.90;;;;;;7285756;19;20184;-82
2023/10/25 11:54:55;;;;;;;9.00;3.83;;;15.10;99.90;;;;;;7287381;19;20539;-82
2023/10/25 11:57:32;;;;;;;8.73;4.30;;;15.20;99.90;;;;;;7287110;19;20192;-82
2023/10/25 11:59:58;;;;;;;7.70;4.23;;;15.40;99.90;;;;;;7266468;19;20205;-81
2023/10/25 12:02:25;;;;;;;7.93;4.50;;;15.60;99.90;;;;;;7309897;19;20289;-82
2023/10/25 12:04:55;;;;;;;9.00;4.47;;;15.60;99.90;;;;;;7286578;19;20210;-82
2023/10/25 12:07:22;;;;;;;9.60;4.40;;;15.70;99.90;;;;;;7288795;19;20208;-81
2023/10/25 12:09:52;;;;;;;10.13;4.90;;;15.80;99.90;;;;;;7286228;19;20863;-82
2023/10/25 12:12:19;;;;;;;9.33;4.40;;;15.90;99.90;;;;;;7292530;19;20712;-81
2023/10/25 12:14:45;;;;;;;10.27;5.10;;;15.80;99.90;;;;;;7291159;19;20297;-81
2023/10/25 12:17:11;;;;;;;8.83;4.80;;;15.70;99.90;;;;;;7287588;19;20185;-81
2023/10/25 12:19:39;;;;;;;9.47;5.17;;;15.80;99.90;;;;;;7289394;19;20185;-82
2023/10/25 12:22:07;;;;;;;8.97;4.50;;;15.90;99.90;;;;;;7288931;19;20200;-82
2023/10/25 12:24:35;;;;;;;10.13;6.00;;;16.20;99.90;;;;;;7290321;19;20181;-82
2023/10/25 12:27:02;;;;;;;9.70;5.47;;;16.50;99.90;;;;;;7291474;19;20209;-82
2023/10/25 12:29:34;;;;;;;11.73;5.97;;;16.60;99.90;;;;;;7289020;19;20197;-82
2023/10/25 12:32:01;;;;;;;10.23;5.57;;;16.60;99.90;;;;;;7292551;19;20188;-81
2023/10/25 12:34:28;;;;;;;11.67;6.20;;;16.70;99.90;;;;;;7286700;19;20192;-81
2023/10/25 12:36:54;;;;;;;9.03;5.70;;;16.80;99.90;;;;;;7315922;19;20203;-81
2023/10/25 12:39:20;;;;;;;10.13;6.00;;;16.90;99.90;;;;;;7306908;19;20202;-83
2023/10/25 12:41:46;;;;;;;10.53;5.80;;;16.80;99.90;;;;;;7302228;19;20184;-82
2023/10/25 12:44:12;;;;;;;12.10;6.03;;;16.70;99.90;;;;;;7298489;19;20211;-82